This is the latest recevied weather packets stored in our database for station/object W6TKD-13. If no packets are shown the sender has not sent any weather packets the latest 10 day(s).
| Time | Temp. | Humidity | Pressure | Rain* | Wind** | Luminosity | Snow |
|---|---|---|---|---|---|---|---|
| 1777765877 | 24.44° C | 46% | 1011 hPa | 0 mm | - | - | - |
| 1777765213 | 24.44° C | 46% | 1011.1 hPa | 0 mm | - | - | - |
| 1777764543 | 24.44° C | 46% | 1011.1 hPa | 0 mm | - | - | - |
| 1777763875 | 24.44° C | 46% | 1011.2 hPa | 0 mm | - | - | - |
| 1777763208 | 24.44° C | 46% | 1011.4 hPa | 0 mm | - | - | - |
| 1777762951 | 17.78° C | 45% | 1013.6 hPa | 0 mm | - | - | - |
| 1777762541 | 24.44° C | 45% | 1011.5 hPa | 0 mm | - | - | - |
| 1777761875 | 25° C | 45% | 1011.5 hPa | 0 mm | - | - | - |
| 1777761209 | 25.56° C | 45% | 1011.6 hPa | 0 mm | - | - | - |
| 1777759874 | 26.67° C | 44% | 1012 hPa | 0 mm | - | - | - |
| 1777758540 | 27.78° C | 44% | 1012.1 hPa | 0 mm | - | - | - |
| 1777757206 | 25.56° C | 46% | 1012.3 hPa | 0 mm | - | - | - |
| 1777755872 | 23.33° C | 46% | 1012.6 hPa | 0 mm | - | - | - |
| 1777755205 | 23.89° C | 46% | 1012.6 hPa | 0 mm | - | - | - |
| 1777754538 | 24.44° C | 46% | 1012.6 hPa | 0 mm | - | - | - |
| 1777753871 | 25° C | 45% | 1012.6 hPa | 0 mm | - | - | - |
| 1777753203 | 26.11° C | 44% | 1012.7 hPa | 0 mm | - | - | - |
| 1777752536 | 26.67° C | 44% | 1012.7 hPa | 0 mm | - | - | - |
| 1777751871 | 27.22° C | 45% | 1012.6 hPa | 0 mm | - | - | - |
| 1777751202 | 26.67° C | 45% | 1012.8 hPa | 0 mm | - | - | - |
| 1777750535 | 26.11° C | 45% | 1012.7 hPa | 0 mm | - | - | - |
| 1777749870 | 26.11° C | 45% | 1012.8 hPa | 0 mm | - | - | - |
| 1777749202 | 26.11° C | 45% | 1012.9 hPa | 0 mm | - | - | - |
| 1777747870 | 26.67° C | 44% | 1012.8 hPa | 0 mm | - | - | - |
| 1777747200 | 27.22° C | 44% | 1012.8 hPa | 0 mm | - | - | - |
* Rain since midnight (hover to see other rain measurements)
** Current wind speed in m/s (hover to see current wind gust speed)